sensor_id;sensor_type;location;lat;lon;timestamp;temperature;humidity
7461;DHT22;6757;52.258;12.840;2023-05-07T00:01:38;8.40;99.90
7461;DHT22;6757;52.258;12.840;2023-05-07T00:04:05;8.40;99.90
7461;DHT22;6757;52.258;12.840;2023-05-07T00:06:32;8.40;99.90
7461;DHT22;6757;52.258;12.840;2023-05-07T00:09:00;8.40;99.90
7461;DHT22;6757;52.258;12.840;2023-05-07T00:11:27;8.40;99.90
7461;DHT22;6757;52.258;12.840;2023-05-07T00:13:54;8.40;99.90
7461;DHT22;6757;52.258;12.840;2023-05-07T00:16:22;8.40;99.90
7461;DHT22;6757;52.258;12.840;2023-05-07T00:18:49;8.40;99.90
7461;DHT22;6757;52.258;12.840;2023-05-07T00:21:16;8.40;99.90
7461;DHT22;6757;52.258;12.840;2023-05-07T00:23:43;8.40;99.90
7461;DHT22;6757;52.258;12.840;2023-05-07T00:26:10;8.40;99.90
7461;DHT22;6757;52.258;12.840;2023-05-07T00:28:37;8.40;99.90
7461;DHT22;6757;52.258;12.840;2023-05-07T00:31:04;8.30;99.90
7461;DHT22;6757;52.258;12.840;2023-05-07T00:33:33;8.40;99.90
7461;DHT22;6757;52.258;12.840;2023-05-07T00:35:59;8.40;99.90
7461;DHT22;6757;52.258;12.840;2023-05-07T00:38:27;8.30;99.90
7461;DHT22;6757;52.258;12.840;2023-05-07T00:40:54;8.40;99.90
7461;DHT22;6757;52.258;12.840;2023-05-07T00:43:21;8.40;99.90
7461;DHT22;6757;52.258;12.840;2023-05-07T00:45:48;8.30;99.90
7461;DHT22;6757;52.258;12.840;2023-05-07T00:48:15;8.40;99.90
7461;DHT22;6757;52.258;12.840;2023-05-07T00:50:44;8.40;99.90
7461;DHT22;6757;52.258;12.840;2023-05-07T00:53:12;8.30;99.90
7461;DHT22;6757;52.258;12.840;2023-05-07T00:55:39;8.30;99.90
7461;DHT22;6757;52.258;12.840;2023-05-07T00:58:06;8.40;99.90
7461;DHT22;6757;52.258;12.840;2023-05-07T01:00:34;8.40;99.90
7461;DHT22;6757;52.258;12.840;2023-05-07T01:03:01;8.40;99.90
7461;DHT22;6757;52.258;12.840;2023-05-07T01:05:28;8.40;99.90
7461;DHT22;6757;52.258;12.840;2023-05-07T01:07:58;8.40;99.90
7461;DHT22;6757;52.258;12.840;2023-05-07T01:10:25;8.40;99.90
7461;DHT22;6757;52.258;12.840;2023-05-07T01:12:54;8.40;99.90
7461;DHT22;6757;52.258;12.840;2023-05-07T01:15:21;8.30;99.90
7461;DHT22;6757;52.258;12.840;2023-05-07T01:17:48;8.40;99.90
7461;DHT22;6757;52.258;12.840;2023-05-07T01:20:15;8.40;99.90
7461;DHT22;6757;52.258;12.840;2023-05-07T01:22:43;8.40;99.90
7461;DHT22;6757;52.258;12.840;2023-05-07T01:25:11;8.40;99.90
7461;DHT22;6757;52.258;12.840;2023-05-07T01:27:39;8.40;99.90
7461;DHT22;6757;52.258;12.840;2023-05-07T01:30:07;8.30;99.90
7461;DHT22;6757;52.258;12.840;2023-05-07T01:32:42;8.40;99.90
7461;DHT22;6757;52.258;12.840;2023-05-07T01:35:12;8.40;99.90
7461;DHT22;6757;52.258;12.840;2023-05-07T01:37:43;8.40;99.90
7461;DHT22;6757;52.258;12.840;2023-05-07T01:40:11;8.40;99.90
7461;DHT22;6757;52.258;12.840;2023-05-07T01:42:38;8.80;99.90
7461;DHT22;6757;52.258;12.840;2023-05-07T01:45:06;8.40;99.90
7461;DHT22;6757;52.258;12.840;2023-05-07T01:47:34;8.40;99.90
7461;DHT22;6757;52.258;12.840;2023-05-07T01:50:03;8.40;99.90
7461;DHT22;6757;52.258;12.840;2023-05-07T01:52:31;8.40;99.90
7461;DHT22;6757;52.258;12.840;2023-05-07T01:55:00;8.40;99.90
7461;DHT22;6757;52.258;12.840;2023-05-07T01:57:26;8.40;99.90
7461;DHT22;6757;52.258;12.840;2023-05-07T01:59:53;8.40;99.90
7461;DHT22;6757;52.258;12.840;2023-05-07T02:02:20;8.40;99.90
7461;DHT22;6757;52.258;12.840;2023-05-07T02:04:47;8.40;99.90
7461;DHT22;6757;52.258;12.840;2023-05-07T02:07:14;8.40;99.90
7461;DHT22;6757;52.258;12.840;2023-05-07T02:09:41;8.40;99.90
7461;DHT22;6757;52.258;12.840;2023-05-07T02:12:09;8.40;99.90
7461;DHT22;6757;52.258;12.840;2023-05-07T02:14:36;8.40;99.90
7461;DHT22;6757;52.258;12.840;2023-05-07T02:17:03;8.40;99.90
7461;DHT22;6757;52.258;12.840;2023-05-07T02:19:30;8.40;99.90
7461;DHT22;6757;52.258;12.840;2023-05-07T02:21:57;8.40;99.90
7461;DHT22;6757;52.258;12.840;2023-05-07T02:24:24;8.50;99.90
7461;DHT22;6757;52.258;12.840;2023-05-07T02:26:50;8.40;99.90
7461;DHT22;6757;52.258;12.840;2023-05-07T02:29:19;8.40;99.90
7461;DHT22;6757;52.258;12.840;2023-05-07T02:31:45;8.40;99.90
7461;DHT22;6757;52.258;12.840;2023-05-07T02:34:16;8.40;99.90
7461;DHT22;6757;52.258;12.840;2023-05-07T02:36:43;8.40;99.90
7461;DHT22;6757;52.258;12.840;2023-05-07T02:39:09;8.40;99.90
7461;DHT22;6757;52.258;12.840;2023-05-07T02:41:36;8.40;99.90
7461;DHT22;6757;52.258;12.840;2023-05-07T02:44:04;8.40;99.90
7461;DHT22;6757;52.258;12.840;2023-05-07T02:46:32;8.40;99.90
7461;DHT22;6757;52.258;12.840;2023-05-07T02:48:59;8.40;99.90
7461;DHT22;6757;52.258;12.840;2023-05-07T02:51:26;8.40;99.90
7461;DHT22;6757;52.258;12.840;2023-05-07T02:53:53;8.40;99.90
7461;DHT22;6757;52.258;12.840;2023-05-07T02:56:20;8.40;99.90
7461;DHT22;6757;52.258;12.840;2023-05-07T02:58:47;8.40;99.90
7461;DHT22;6757;52.258;12.840;2023-05-07T03:01:14;8.40;99.90
7461;DHT22;6757;52.258;12.840;2023-05-07T03:03:42;8.40;99.90
7461;DHT22;6757;52.258;12.840;2023-05-07T03:06:10;8.40;99.90
7461;DHT22;6757;52.258;12.840;2023-05-07T03:08:37;8.40;99.90
7461;DHT22;6757;52.258;12.840;2023-05-07T03:11:04;8.40;99.90
7461;DHT22;6757;52.258;12.840;2023-05-07T03:13:31;8.40;99.90
7461;DHT22;6757;52.258;12.840;2023-05-07T03:15:58;8.40;99.90
7461;DHT22;6757;52.258;12.840;2023-05-07T03:18:25;8.40;99.90
7461;DHT22;6757;52.258;12.840;2023-05-07T03:20:53;8.40;99.90
7461;DHT22;6757;52.258;12.840;2023-05-07T03:23:20;8.40;99.90
7461;DHT22;6757;52.258;12.840;2023-05-07T03:25:47;8.40;99.90
7461;DHT22;6757;52.258;12.840;2023-05-07T03:28:13;8.40;99.90
7461;DHT22;6757;52.258;12.840;2023-05-07T03:30:40;8.40;99.90
7461;DHT22;6757;52.258;12.840;2023-05-07T03:33:07;8.40;99.90
7461;DHT22;6757;52.258;12.840;2023-05-07T03:35:34;8.40;99.90
7461;DHT22;6757;52.258;12.840;2023-05-07T03:38:02;8.40;99.90
7461;DHT22;6757;52.258;12.840;2023-05-07T03:40:30;8.40;99.90
7461;DHT22;6757;52.258;12.840;2023-05-07T03:42:56;8.40;99.90
7461;DHT22;6757;52.258;12.840;2023-05-07T03:45:23;8.40;99.90
7461;DHT22;6757;52.258;12.840;2023-05-07T03:47:51;8.40;99.90
7461;DHT22;6757;52.258;12.840;2023-05-07T03:50:18;8.40;99.90
7461;DHT22;6757;52.258;12.840;2023-05-07T03:52:45;8.40;99.90
7461;DHT22;6757;52.258;12.840;2023-05-07T03:55:13;8.40;99.90
7461;DHT22;6757;52.258;12.840;2023-05-07T03:57:40;8.40;99.90
7461;DHT22;6757;52.258;12.840;2023-05-07T04:00:07;8.40;99.90
7461;DHT22;6757;52.258;12.840;2023-05-07T04:02:35;8.40;99.90
7461;DHT22;6757;52.258;12.840;2023-05-07T04:05:02;8.40;99.90
7461;DHT22;6757;52.258;12.840;2023-05-07T04:07:29;8.40;99.90
7461;DHT22;6757;52.258;12.840;2023-05-07T04:09:55;8.40;99.90
7461;DHT22;6757;52.258;12.840;2023-05-07T04:12:24;8.40;99.90
7461;DHT22;6757;52.258;12.840;2023-05-07T04:14:50;8.40;99.90
7461;DHT22;6757;52.258;12.840;2023-05-07T04:17:17;8.40;99.90
7461;DHT22;6757;52.258;12.840;2023-05-07T04:19:44;8.40;99.90
7461;DHT22;6757;52.258;12.840;2023-05-07T04:22:12;8.40;99.90
7461;DHT22;6757;52.258;12.840;2023-05-07T04:24:39;8.50;99.90
7461;DHT22;6757;52.258;12.840;2023-05-07T04:27:06;8.50;99.90
7461;DHT22;6757;52.258;12.840;2023-05-07T04:29:34;8.50;99.90
7461;DHT22;6757;52.258;12.840;2023-05-07T04:32:01;8.60;99.90
7461;DHT22;6757;52.258;12.840;2023-05-07T04:34:28;8.60;99.90
7461;DHT22;6757;52.258;12.840;2023-05-07T04:36:58;8.60;99.90
7461;DHT22;6757;52.258;12.840;2023-05-07T04:39:25;8.70;99.90
7461;DHT22;6757;52.258;12.840;2023-05-07T04:41:52;8.70;99.90
7461;DHT22;6757;52.258;12.840;2023-05-07T04:44:20;8.70;99.90
7461;DHT22;6757;52.258;12.840;2023-05-07T04:46:48;8.60;99.90
7461;DHT22;6757;52.258;12.840;2023-05-07T04:49:15;8.70;99.90
7461;DHT22;6757;52.258;12.840;2023-05-07T04:51:42;8.70;99.90
7461;DHT22;6757;52.258;12.840;2023-05-07T04:54:09;8.80;99.90
7461;DHT22;6757;52.258;12.840;2023-05-07T04:56:36;8.80;99.90
7461;DHT22;6757;52.258;12.840;2023-05-07T04:59:02;8.80;99.90
7461;DHT22;6757;52.258;12.840;2023-05-07T05:01:30;8.80;99.90
7461;DHT22;6757;52.258;12.840;2023-05-07T05:03:58;8.80;99.90
7461;DHT22;6757;52.258;12.840;2023-05-07T05:06:25;8.80;99.90
7461;DHT22;6757;52.258;12.840;2023-05-07T05:08:52;8.90;99.90
7461;DHT22;6757;52.258;12.840;2023-05-07T05:11:19;8.80;99.90
7461;DHT22;6757;52.258;12.840;2023-05-07T05:13:46;8.90;99.90
7461;DHT22;6757;52.258;12.840;2023-05-07T05:16:14;8.90;99.90
7461;DHT22;6757;52.258;12.840;2023-05-07T05:18:41;8.90;99.90
7461;DHT22;6757;52.258;12.840;2023-05-07T05:21:09;9.00;99.90
7461;DHT22;6757;52.258;12.840;2023-05-07T05:23:36;9.00;99.90
7461;DHT22;6757;52.258;12.840;2023-05-07T05:26:03;9.10;99.90
7461;DHT22;6757;52.258;12.840;2023-05-07T05:28:30;9.10;99.90
7461;DHT22;6757;52.258;12.840;2023-05-07T05:30:57;9.20;99.90
7461;DHT22;6757;52.258;12.840;2023-05-07T05:33:24;9.20;99.90
7461;DHT22;6757;52.258;12.840;2023-05-07T05:35:51;9.20;99.90
7461;DHT22;6757;52.258;12.840;2023-05-07T05:38:19;9.20;99.90
7461;DHT22;6757;52.258;12.840;2023-05-07T05:40:46;9.20;99.90
7461;DHT22;6757;52.258;12.840;2023-05-07T05:43:13;9.20;99.90
7461;DHT22;6757;52.258;12.840;2023-05-07T05:45:40;9.10;99.90
7461;DHT22;6757;52.258;12.840;2023-05-07T05:48:07;9.10;99.90
7461;DHT22;6757;52.258;12.840;2023-05-07T05:50:34;9.20;99.90
7461;DHT22;6757;52.258;12.840;2023-05-07T05:53:02;9.10;99.90
7461;DHT22;6757;52.258;12.840;2023-05-07T05:55:30;9.10;99.90
7461;DHT22;6757;52.258;12.840;2023-05-07T05:57:58;9.10;99.90
7461;DHT22;6757;52.258;12.840;2023-05-07T06:00:25;9.10;99.90
7461;DHT22;6757;52.258;12.840;2023-05-07T06:02:52;9.10;99.90
7461;DHT22;6757;52.258;12.840;2023-05-07T06:05:19;9.00;99.90
7461;DHT22;6757;52.258;12.840;2023-05-07T06:07:46;9.00;99.90
7461;DHT22;6757;52.258;12.840;2023-05-07T06:10:13;9.00;99.90
7461;DHT22;6757;52.258;12.840;2023-05-07T06:12:41;9.00;99.90
7461;DHT22;6757;52.258;12.840;2023-05-07T06:15:09;9.00;99.90
7461;DHT22;6757;52.258;12.840;2023-05-07T06:17:36;9.00;99.90
7461;DHT22;6757;52.258;12.840;2023-05-07T06:20:04;9.10;99.90
7461;DHT22;6757;52.258;12.840;2023-05-07T06:22:32;9.10;99.90
7461;DHT22;6757;52.258;12.840;2023-05-07T06:24:59;9.10;99.90
7461;DHT22;6757;52.258;12.840;2023-05-07T06:27:26;9.20;99.90
7461;DHT22;6757;52.258;12.840;2023-05-07T06:29:54;9.40;99.90
7461;DHT22;6757;52.258;12.840;2023-05-07T06:32:21;9.60;99.90
7461;DHT22;6757;52.258;12.840;2023-05-07T06:34:48;9.80;99.90
7461;DHT22;6757;52.258;12.840;2023-05-07T06:37:15;9.80;99.90
7461;DHT22;6757;52.258;12.840;2023-05-07T06:39:42;9.80;99.90
7461;DHT22;6757;52.258;12.840;2023-05-07T06:42:09;9.90;99.90
7461;DHT22;6757;52.258;12.840;2023-05-07T06:44:36;10.00;99.90
7461;DHT22;6757;52.258;12.840;2023-05-07T06:47:04;10.30;99.90
7461;DHT22;6757;52.258;12.840;2023-05-07T06:49:31;10.50;99.90
7461;DHT22;6757;52.258;12.840;2023-05-07T06:51:58;10.90;99.90
7461;DHT22;6757;52.258;12.840;2023-05-07T06:54:25;11.00;99.90
7461;DHT22;6757;52.258;12.840;2023-05-07T06:56:52;11.10;99.90
7461;DHT22;6757;52.258;12.840;2023-05-07T06:59:19;11.10;99.90
7461;DHT22;6757;52.258;12.840;2023-05-07T07:01:46;11.10;99.90
7461;DHT22;6757;52.258;12.840;2023-05-07T07:04:14;11.10;99.90
7461;DHT22;6757;52.258;12.840;2023-05-07T07:06:41;11.00;99.90
7461;DHT22;6757;52.258;12.840;2023-05-07T07:09:08;11.00;99.90
7461;DHT22;6757;52.258;12.840;2023-05-07T07:11:35;11.00;99.90
7461;DHT22;6757;52.258;12.840;2023-05-07T07:14:02;10.90;99.90
7461;DHT22;6757;52.258;12.840;2023-05-07T07:16:30;10.90;99.90
7461;DHT22;6757;52.258;12.840;2023-05-07T07:18:57;10.90;99.90
7461;DHT22;6757;52.258;12.840;2023-05-07T07:21:25;10.90;99.90
7461;DHT22;6757;52.258;12.840;2023-05-07T07:23:52;10.80;99.90
7461;DHT22;6757;52.258;12.840;2023-05-07T07:26:19;10.80;99.90
7461;DHT22;6757;52.258;12.840;2023-05-07T07:28:46;10.80;99.90
7461;DHT22;6757;52.258;12.840;2023-05-07T07:31:13;10.80;99.90
7461;DHT22;6757;52.258;12.840;2023-05-07T07:33:40;10.80;99.90
7461;DHT22;6757;52.258;12.840;2023-05-07T07:36:07;10.80;99.90
7461;DHT22;6757;52.258;12.840;2023-05-07T07:38:36;11.00;99.90
7461;DHT22;6757;52.258;12.840;2023-05-07T07:41:03;10.80;99.90
7461;DHT22;6757;52.258;12.840;2023-05-07T07:43:30;10.80;99.90
7461;DHT22;6757;52.258;12.840;2023-05-07T07:45:57;10.80;99.90
7461;DHT22;6757;52.258;12.840;2023-05-07T07:48:24;11.00;99.90
7461;DHT22;6757;52.258;12.840;2023-05-07T07:50:51;10.90;99.90
7461;DHT22;6757;52.258;12.840;2023-05-07T07:53:18;10.80;99.90
7461;DHT22;6757;52.258;12.840;2023-05-07T07:55:46;10.80;99.90
7461;DHT22;6757;52.258;12.840;2023-05-07T07:58:13;10.80;99.90
7461;DHT22;6757;52.258;12.840;2023-05-07T08:00:40;10.80;99.90
7461;DHT22;6757;52.258;12.840;2023-05-07T08:03:09;10.80;99.90
7461;DHT22;6757;52.258;12.840;2023-05-07T08:05:36;10.80;99.90
7461;DHT22;6757;52.258;12.840;2023-05-07T08:08:04;10.80;99.90
7461;DHT22;6757;52.258;12.840;2023-05-07T08:10:31;10.80;99.90
7461;DHT22;6757;52.258;12.840;2023-05-07T08:13:01;10.90;99.90
7461;DHT22;6757;52.258;12.840;2023-05-07T08:15:29;10.90;99.90
7461;DHT22;6757;52.258;12.840;2023-05-07T08:17:56;11.00;99.90
7461;DHT22;6757;52.258;12.840;2023-05-07T08:20:23;11.00;99.90
7461;DHT22;6757;52.258;12.840;2023-05-07T08:22:51;11.10;99.90
7461;DHT22;6757;52.258;12.840;2023-05-07T08:25:18;11.20;99.90
7461;DHT22;6757;52.258;12.840;2023-05-07T08:27:45;11.20;99.90
7461;DHT22;6757;52.258;12.840;2023-05-07T08:30:14;11.30;99.90
7461;DHT22;6757;52.258;12.840;2023-05-07T08:32:41;11.30;99.90
7461;DHT22;6757;52.258;12.840;2023-05-07T08:35:08;11.40;99.90
7461;DHT22;6757;52.258;12.840;2023-05-07T08:37:36;11.50;99.90
7461;DHT22;6757;52.258;12.840;2023-05-07T08:40:03;11.50;99.90
7461;DHT22;6757;52.258;12.840;2023-05-07T08:42:34;11.50;99.90
7461;DHT22;6757;52.258;12.840;2023-05-07T08:45:03;11.50;99.90
7461;DHT22;6757;52.258;12.840;2023-05-07T08:47:38;11.60;99.90
7461;DHT22;6757;52.258;12.840;2023-05-07T08:50:07;11.60;99.90
7461;DHT22;6757;52.258;12.840;2023-05-07T08:52:35;11.70;99.90
7461;DHT22;6757;52.258;12.840;2023-05-07T08:55:03;11.80;99.90
7461;DHT22;6757;52.258;12.840;2023-05-07T08:57:30;11.90;99.90
7461;DHT22;6757;52.258;12.840;2023-05-07T08:59:57;12.00;99.90
7461;DHT22;6757;52.258;12.840;2023-05-07T09:02:24;12.10;99.90
7461;DHT22;6757;52.258;12.840;2023-05-07T09:04:52;12.20;99.90
7461;DHT22;6757;52.258;12.840;2023-05-07T09:07:19;12.20;99.90
7461;DHT22;6757;52.258;12.840;2023-05-07T09:09:46;12.30;99.90
7461;DHT22;6757;52.258;12.840;2023-05-07T09:12:13;12.40;99.90
7461;DHT22;6757;52.258;12.840;2023-05-07T09:14:40;12.40;99.90
7461;DHT22;6757;52.258;12.840;2023-05-07T09:17:07;12.40;99.90
7461;DHT22;6757;52.258;12.840;2023-05-07T09:19:34;12.50;99.90
7461;DHT22;6757;52.258;12.840;2023-05-07T09:22:04;12.60;99.90
7461;DHT22;6757;52.258;12.840;2023-05-07T09:24:32;12.70;99.90
7461;DHT22;6757;52.258;12.840;2023-05-07T09:27:03;12.70;99.90
7461;DHT22;6757;52.258;12.840;2023-05-07T09:29:31;12.70;99.90
7461;DHT22;6757;52.258;12.840;2023-05-07T09:32:01;12.70;99.90
7461;DHT22;6757;52.258;12.840;2023-05-07T09:34:28;12.70;99.90
7461;DHT22;6757;52.258;12.840;2023-05-07T09:36:56;12.70;99.90
7461;DHT22;6757;52.258;12.840;2023-05-07T09:39:24;12.80;99.90
7461;DHT22;6757;52.258;12.840;2023-05-07T09:41:52;13.00;99.90
7461;DHT22;6757;52.258;12.840;2023-05-07T09:44:20;12.90;99.90
7461;DHT22;6757;52.258;12.840;2023-05-07T09:46:54;12.90;99.90
7461;DHT22;6757;52.258;12.840;2023-05-07T09:49:22;13.00;99.90
7461;DHT22;6757;52.258;12.840;2023-05-07T09:51:51;12.90;99.90
7461;DHT22;6757;52.258;12.840;2023-05-07T09:54:19;13.30;99.90
7461;DHT22;6757;52.258;12.840;2023-05-07T09:56:49;13.10;99.90
7461;DHT22;6757;52.258;12.840;2023-05-07T09:59:16;13.10;99.90
7461;DHT22;6757;52.258;12.840;2023-05-07T10:01:44;13.20;99.90
7461;DHT22;6757;52.258;12.840;2023-05-07T10:04:12;13.40;99.90
7461;DHT22;6757;52.258;12.840;2023-05-07T10:06:40;13.40;99.90
7461;DHT22;6757;52.258;12.840;2023-05-07T10:09:07;13.50;99.90
7461;DHT22;6757;52.258;12.840;2023-05-07T10:11:35;13.60;99.90
7461;DHT22;6757;52.258;12.840;2023-05-07T10:14:04;13.60;99.90
7461;DHT22;6757;52.258;12.840;2023-05-07T10:16:32;13.70;99.90
7461;DHT22;6757;52.258;12.840;2023-05-07T10:19:02;13.70;99.90
7461;DHT22;6757;52.258;12.840;2023-05-07T10:21:30;13.90;99.90
7461;DHT22;6757;52.258;12.840;2023-05-07T10:24:00;13.90;99.90
7461;DHT22;6757;52.258;12.840;2023-05-07T10:26:32;14.00;99.90
7461;DHT22;6757;52.258;12.840;2023-05-07T10:29:05;14.10;99.90
7461;DHT22;6757;52.258;12.840;2023-05-07T10:31:54;14.30;99.90
7461;DHT22;6757;52.258;12.840;2023-05-07T10:34:24;14.40;99.90
7461;DHT22;6757;52.258;12.840;2023-05-07T10:36:54;14.50;99.90
7461;DHT22;6757;52.258;12.840;2023-05-07T10:39:23;14.70;99.90
7461;DHT22;6757;52.258;12.840;2023-05-07T10:41:50;14.80;99.90
7461;DHT22;6757;52.258;12.840;2023-05-07T10:44:28;14.90;99.90
7461;DHT22;6757;52.258;12.840;2023-05-07T10:47:06;15.00;99.90
7461;DHT22;6757;52.258;12.840;2023-05-07T10:49:35;15.10;99.90
7461;DHT22;6757;52.258;12.840;2023-05-07T10:52:13;15.00;99.90
7461;DHT22;6757;52.258;12.840;2023-05-07T10:54:42;14.90;99.90
7461;DHT22;6757;52.258;12.840;2023-05-07T10:57:33;14.90;99.90
7461;DHT22;6757;52.258;12.840;2023-05-07T11:00:04;14.90;99.90
7461;DHT22;6757;52.258;12.840;2023-05-07T11:03:09;14.80;99.90
7461;DHT22;6757;52.258;12.840;2023-05-07T11:05:37;14.80;99.90
7461;DHT22;6757;52.258;12.840;2023-05-07T11:08:05;14.70;99.90
7461;DHT22;6757;52.258;12.840;2023-05-07T11:10:49;14.70;99.90
7461;DHT22;6757;52.258;12.840;2023-05-07T11:13:17;14.70;99.90
7461;DHT22;6757;52.258;12.840;2023-05-07T11:15:48;14.60;99.90
7461;DHT22;6757;52.258;12.840;2023-05-07T11:18:15;14.60;99.90
7461;DHT22;6757;52.258;12.840;2023-05-07T11:20:50;14.60;99.90
7461;DHT22;6757;52.258;12.840;2023-05-07T11:23:55;14.60;99.90
7461;DHT22;6757;52.258;12.840;2023-05-07T11:26:27;14.50;99.90
7461;DHT22;6757;52.258;12.840;2023-05-07T11:28:55;14.50;99.90
7461;DHT22;6757;52.258;12.840;2023-05-07T11:31:25;14.60;99.90
7461;DHT22;6757;52.258;12.840;2023-05-07T11:33:54;14.60;99.90
7461;DHT22;6757;52.258;12.840;2023-05-07T11:36:23;14.50;99.90
7461;DHT22;6757;52.258;12.840;2023-05-07T11:38:50;14.50;99.90
7461;DHT22;6757;52.258;12.840;2023-05-07T11:41:17;14.40;99.90
7461;DHT22;6757;52.258;12.840;2023-05-07T11:43:59;14.40;99.90
7461;DHT22;6757;52.258;12.840;2023-05-07T11:46:28;14.40;99.90
7461;DHT22;6757;52.258;12.840;2023-05-07T11:48:56;14.50;99.90
7461;DHT22;6757;52.258;12.840;2023-05-07T11:51:24;14.60;99.90
7461;DHT22;6757;52.258;12.840;2023-05-07T11:53:53;14.70;99.90
7461;DHT22;6757;52.258;12.840;2023-05-07T11:56:20;14.80;99.90
7461;DHT22;6757;52.258;12.840;2023-05-07T11:58:47;14.80;99.90
7461;DHT22;6757;52.258;12.840;2023-05-07T12:01:15;14.70;99.90
7461;DHT22;6757;52.258;12.840;2023-05-07T12:03:45;14.90;99.90
7461;DHT22;6757;52.258;12.840;2023-05-07T12:06:14;14.80;99.90
7461;DHT22;6757;52.258;12.840;2023-05-07T12:08:43;14.80;99.90
7461;DHT22;6757;52.258;12.840;2023-05-07T12:11:14;14.70;99.90
7461;DHT22;6757;52.258;12.840;2023-05-07T12:13:43;14.70;99.90
7461;DHT22;6757;52.258;12.840;2023-05-07T12:16:11;14.70;99.90
7461;DHT22;6757;52.258;12.840;2023-05-07T12:18:38;14.70;99.90
7461;DHT22;6757;52.258;12.840;2023-05-07T12:21:06;14.70;99.90
7461;DHT22;6757;52.258;12.840;2023-05-07T12:23:34;14.70;99.90
7461;DHT22;6757;52.258;12.840;2023-05-07T12:26:03;14.80;99.90
7461;DHT22;6757;52.258;12.840;2023-05-07T12:28:31;14.90;99.90
7461;DHT22;6757;52.258;12.840;2023-05-07T12:31:04;14.90;99.90
7461;DHT22;6757;52.258;12.840;2023-05-07T12:33:32;14.90;99.90
7461;DHT22;6757;52.258;12.840;2023-05-07T12:36:03;15.10;99.90
7461;DHT22;6757;52.258;12.840;2023-05-07T12:38:35;15.20;99.90
7461;DHT22;6757;52.258;12.840;2023-05-07T12:41:03;15.40;99.90
7461;DHT22;6757;52.258;12.840;2023-05-07T12:43:31;15.50;99.90
7461;DHT22;6757;52.258;12.840;2023-05-07T12:46:00;15.60;99.90
7461;DHT22;6757;52.258;12.840;2023-05-07T12:48:28;15.60;99.90
7461;DHT22;6757;52.258;12.840;2023-05-07T12:50:56;15.60;99.90
7461;DHT22;6757;52.258;12.840;2023-05-07T12:53:26;15.50;99.90
7461;DHT22;6757;52.258;12.840;2023-05-07T12:55:54;15.50;99.90
7461;DHT22;6757;52.258;12.840;2023-05-07T12:58:25;15.60;99.90
7461;DHT22;6757;52.258;12.840;2023-05-07T13:00:53;15.60;99.90
7461;DHT22;6757;52.258;12.840;2023-05-07T13:03:25;15.80;99.90
7461;DHT22;6757;52.258;12.840;2023-05-07T13:05:53;16.30;99.90
7461;DHT22;6757;52.258;12.840;2023-05-07T13:08:27;16.90;99.90
7461;DHT22;6757;52.258;12.840;2023-05-07T13:10:56;17.50;99.90
7461;DHT22;6757;52.258;12.840;2023-05-07T13:13:24;17.90;99.90
7461;DHT22;6757;52.258;12.840;2023-05-07T13:15:51;18.00;99.90
7461;DHT22;6757;52.258;12.840;2023-05-07T13:18:18;17.90;99.90
7461;DHT22;6757;52.258;12.840;2023-05-07T13:20:45;17.70;99.90
7461;DHT22;6757;52.258;12.840;2023-05-07T13:23:11;17.60;99.90
7461;DHT22;6757;52.258;12.840;2023-05-07T13:25:40;17.40;99.90
7461;DHT22;6757;52.258;12.840;2023-05-07T13:28:06;17.30;99.90
7461;DHT22;6757;52.258;12.840;2023-05-07T13:30:33;17.20;99.90
7461;DHT22;6757;52.258;12.840;2023-05-07T13:33:00;17.50;99.90
7461;DHT22;6757;52.258;12.840;2023-05-07T13:35:27;18.00;99.90
7461;DHT22;6757;52.258;12.840;2023-05-07T13:37:55;18.60;99.90
7461;DHT22;6757;52.258;12.840;2023-05-07T13:40:22;18.80;99.90
7461;DHT22;6757;52.258;12.840;2023-05-07T13:42:50;18.80;99.90
7461;DHT22;6757;52.258;12.840;2023-05-07T13:45:18;18.70;99.90
7461;DHT22;6757;52.258;12.840;2023-05-07T13:47:45;18.50;99.90
7461;DHT22;6757;52.258;12.840;2023-05-07T13:50:13;18.20;99.90
7461;DHT22;6757;52.258;12.840;2023-05-07T13:52:41;18.30;99.90
7461;DHT22;6757;52.258;12.840;2023-05-07T13:55:11;18.80;99.90
7461;DHT22;6757;52.258;12.840;2023-05-07T13:57:38;19.40;99.90
7461;DHT22;6757;52.258;12.840;2023-05-07T14:00:07;20.00;99.90
7461;DHT22;6757;52.258;12.840;2023-05-07T14:02:35;20.50;99.90
7461;DHT22;6757;52.258;12.840;2023-05-07T14:05:02;20.70;99.90
7461;DHT22;6757;52.258;12.840;2023-05-07T14:07:30;20.90;99.90
7461;DHT22;6757;52.258;12.840;2023-05-07T14:09:57;21.20;99.90
7461;DHT22;6757;52.258;12.840;2023-05-07T14:12:24;21.80;99.90
7461;DHT22;6757;52.258;12.840;2023-05-07T14:14:51;22.30;98.90
7461;DHT22;6757;52.258;12.840;2023-05-07T14:17:19;23.00;97.10
7461;DHT22;6757;52.258;12.840;2023-05-07T14:19:48;23.50;95.30
7461;DHT22;6757;52.258;12.840;2023-05-07T14:22:15;23.50;93.60
7461;DHT22;6757;52.258;12.840;2023-05-07T14:24:42;23.60;92.50
7461;DHT22;6757;52.258;12.840;2023-05-07T14:27:09;23.80;91.60
7461;DHT22;6757;52.258;12.840;2023-05-07T14:29:36;24.20;90.70
7461;DHT22;6757;52.258;12.840;2023-05-07T14:32:03;24.50;89.60
7461;DHT22;6757;52.258;12.840;2023-05-07T14:34:32;24.60;86.50
7461;DHT22;6757;52.258;12.840;2023-05-07T14:36:59;24.50;84.60
7461;DHT22;6757;52.258;12.840;2023-05-07T14:39:26;24.60;83.20
7461;DHT22;6757;52.258;12.840;2023-05-07T14:41:53;24.80;82.30
7461;DHT22;6757;52.258;12.840;2023-05-07T14:44:21;25.00;80.60
7461;DHT22;6757;52.258;12.840;2023-05-07T14:46:48;25.20;78.90
7461;DHT22;6757;52.258;12.840;2023-05-07T14:49:15;25.40;77.10
7461;DHT22;6757;52.258;12.840;2023-05-07T14:51:44;25.50;75.70
7461;DHT22;6757;52.258;12.840;2023-05-07T14:54:11;25.70;74.90
7461;DHT22;6757;52.258;12.840;2023-05-07T14:56:39;25.90;73.70
7461;DHT22;6757;52.258;12.840;2023-05-07T14:59:06;25.90;72.20
7461;DHT22;6757;52.258;12.840;2023-05-07T15:01:34;25.80;71.70
7461;DHT22;6757;52.258;12.840;2023-05-07T15:04:03;25.70;71.40
7461;DHT22;6757;52.258;12.840;2023-05-07T15:06:31;25.60;70.80
7461;DHT22;6757;52.258;12.840;2023-05-07T15:09:00;25.50;70.70
7461;DHT22;6757;52.258;12.840;2023-05-07T15:11:27;25.40;70.70
7461;DHT22;6757;52.258;12.840;2023-05-07T15:13:54;25.30;70.20
7461;DHT22;6757;52.258;12.840;2023-05-07T15:16:21;25.30;70.30
7461;DHT22;6757;52.258;12.840;2023-05-07T15:18:48;25.20;69.30
7461;DHT22;6757;52.258;12.840;2023-05-07T15:21:15;25.20;69.20
7461;DHT22;6757;52.258;12.840;2023-05-07T15:23:42;25.20;68.70
7461;DHT22;6757;52.258;12.840;2023-05-07T15:26:11;25.20;68.20
7461;DHT22;6757;52.258;12.840;2023-05-07T15:28:38;25.10;67.90
7461;DHT22;6757;52.258;12.840;2023-05-07T15:31:05;25.00;67.60
7461;DHT22;6757;52.258;12.840;2023-05-07T15:33:32;25.00;67.70
7461;DHT22;6757;52.258;12.840;2023-05-07T15:35:59;24.90;67.40
7461;DHT22;6757;52.258;12.840;2023-05-07T15:38:29;25.00;67.10
7461;DHT22;6757;52.258;12.840;2023-05-07T15:40:56;24.70;66.70
7461;DHT22;6757;52.258;12.840;2023-05-07T15:43:24;24.60;66.80
7461;DHT22;6757;52.258;12.840;2023-05-07T15:45:51;24.60;67.10
7461;DHT22;6757;52.258;12.840;2023-05-07T15:48:18;24.50;67.00
7461;DHT22;6757;52.258;12.840;2023-05-07T15:50:45;24.10;66.90
7461;DHT22;6757;52.258;12.840;2023-05-07T15:53:12;23.60;67.10
7461;DHT22;6757;52.258;12.840;2023-05-07T15:55:40;23.50;68.00
7461;DHT22;6757;52.258;12.840;2023-05-07T15:58:07;23.00;68.30